Mars — WDD7627 — position and weather

sailwx.info

Track history (hours):
 
Tides and Currents Weather Stations Pressure Air Temp Water Temp Dewpoint Dewpoint Depression Visibility Wind Speed Wind Dir Waves Ship Positions

Mars

Owner: G & H Towing Company, Galveston, TX. More information available from US FCC via Universal Licensing System and Coast Guard Vessel Documentation Center.

Last reported at 2017-Nov-24 06:34 UTC. Time now 2017-Nov-24 07:09 UTC.
Position N 29°43' W 095°15'.

Length 28 m; draft 4.5 m.

Type: Tug. MMSI: 366921820.

Date/timePositionNaut miles runAvg speedWind from/ knotsBaromVisibWave heightAir tempDewpointWater temp
2017-Nov-24 06:34N 29°43' W 095°15'0 5.2
2017-Nov-24 06:30N 29°43' W 095°15'1 2.2
2017-Nov-24 06:00N 29°44' W 095°13'1 0.4
2017-Nov-24 02:56N 29°43' W 095°15'0 0.7
2017-Nov-24 02:25N 29°43' W 095°15'1 2.4
2017-Nov-24 02:00N 29°44' W 095°14'4 6.3
2017-Nov-24 01:23N 29°44' W 095°09'2 3.2
2017-Nov-24 00:38N 29°45' W 095°07'0 0.0
2017-Nov-24 00:18N 29°45' W 095°07'0 0.0
2017-Nov-23 16:35N 29°44' W 095°07'0 0.0
2017-Nov-23 16:31N 29°44' W 095°07'0 0.0
2017-Nov-23 15:58N 29°44' W 095°07'0 0.0
2017-Nov-23 15:22N 29°44' W 095°07'0 0.0
2017-Nov-23 14:59N 29°44' W 095°07'0 0.0
2017-Nov-23 14:23N 29°44' W 095°07'0 0.0
2017-Nov-23 14:00N 29°44' W 095°07'0 0.0
2017-Nov-23 13:27N 29°44' W 095°07'0 0.2
2017-Nov-23 11:52N 29°45' W 095°07'0 0.0
2017-Nov-23 11:23N 29°45' W 095°07'2 2.8
2017-Nov-23 10:47N 29°44' W 095°08'3 0.6
2017-Nov-23 06:24N 29°45' W 095°12'3 6.3
2017-Nov-23 05:55N 29°43' W 095°15'1 1.9
2017-Nov-23 05:17N 29°44' W 095°16'0 0.0
2017-Nov-23 04:56N 29°44' W 095°16'0 0.0
2017-Nov-23 04:29N 29°44' W 095°16'0 0.0
2017-Nov-23 03:59N 29°44' W 095°16'0 0.0
2017-Nov-23 03:29N 29°44' W 095°16'0 0.0
2017-Nov-23 02:53N 29°44' W 095°16'0 0.0
2017-Nov-23 02:29N 29°44' W 095°16'0 0.0
2017-Nov-23 01:59N 29°44' W 095°16'0 0.0
2017-Nov-23 01:23N 29°44' W 095°16'0 0.0
2017-Nov-23 00:59N 29°44' W 095°16'0 0.0
2017-Nov-23 00:17N 29°44' W 095°16'0 0.0
2017-Nov-22 23:59N 29°44' W 095°16'0 0.0
2017-Nov-22 23:20N 29°44' W 095°16'0 0.0
2017-Nov-22 22:59N 29°44' W 095°16'0 0.0
2017-Nov-22 22:17N 29°44' W 095°16'0 1.3
2017-Nov-22 22:00N 29°44' W 095°16'1 1.1
2017-Nov-22 21:28N 29°44' W 095°17'1 1.9
2017-Nov-22 21:00N 29°44' W 095°16'1 1.4
2017-Nov-22 20:30N 29°44' W 095°15'3 7.1
2017-Nov-22 20:00N 29°45' W 095°11'  
2017-Nov-18 06:16N 29°42' W 095°01'2 6.4
2017-Nov-18 06:00N 29°42' W 094°59'5 9.2
2017-Nov-18 05:29N 29°37' W 094°57'3 7.1
2017-Nov-18 05:00N 29°37' W 095°01'0 0.1
2017-Nov-18 04:30N 29°37' W 095°01'1 2.0
2017-Nov-18 04:00N 29°37' W 095°00'0 0.0
2017-Nov-18 03:30N 29°37' W 095°00'0 0.0
2017-Nov-18 03:00N 29°37' W 095°00'0 0.0
2017-Nov-18 02:30N 29°37' W 095°00'0 0.0
2017-Nov-18 02:00N 29°37' W 095°00'0 0.0
2017-Nov-18 01:30N 29°37' W 095°00'0 0.0
2017-Nov-18 01:00N 29°37' W 095°00'0 0.0
2017-Nov-18 00:30N 29°37' W 095°00'0 0.0
2017-Nov-18 00:00N 29°37' W 095°00'1 2.0
2017-Nov-17 23:30N 29°37' W 095°01'0 0.6
2017-Nov-17 23:00N 29°37' W 095°02'0 0.0
2017-Nov-17 22:30N 29°37' W 095°02'0 0.4
2017-Nov-17 22:00N 29°37' W 095°01'1 2.1
2017-Nov-17 21:30N 29°37' W 095°00'0 0.0
2017-Nov-17 21:00N 29°37' W 095°00'0 0.0
2017-Nov-17 20:30N 29°37' W 095°00'0 0.0
2017-Nov-17 20:00N 29°37' W 095°00'0 0.0
2017-Nov-17 19:30N 29°37' W 095°00'0 0.2
2017-Nov-17 19:00N 29°37' W 095°00'0 0.0
2017-Nov-17 18:30N 29°37' W 095°00'0 0.0
2017-Nov-17 18:00N 29°37' W 095°00'0 0.0
2017-Nov-17 17:30N 29°37' W 095°00'0 0.0
2017-Nov-17 17:00N 29°37' W 095°00'0 0.0
2017-Nov-17 16:30N 29°37' W 095°00'0 0.0
2017-Nov-17 16:00N 29°37' W 095°00'0 0.0
2017-Nov-17 15:30N 29°37' W 095°00'0 0.0
2017-Nov-17 15:00N 29°37' W 095°00'0 0.0
2017-Nov-17 14:30N 29°37' W 095°00'0 0.0
2017-Nov-17 14:00N 29°37' W 095°00'0 0.0
2017-Nov-17 13:30N 29°37' W 095°00'0 0.0
2017-Nov-17 13:00N 29°37' W 095°00'0 0.0
2017-Nov-17 12:30N 29°37' W 095°00'0 0.0
2017-Nov-17 11:58N 29°37' W 095°00'0 0.0
2017-Nov-17 11:30N 29°37' W 095°00'0 0.0
2017-Nov-17 11:00N 29°37' W 095°00'0 0.0
2017-Nov-17 10:30N 29°37' W 095°00'0 0.0
2017-Nov-17 10:00N 29°37' W 095°00'0 0.0
2017-Nov-17 09:30N 29°37' W 095°00'0 0.6
2017-Nov-17 09:00N 29°37' W 095°01'0 0.0
2017-Nov-17 08:30N 29°37' W 095°01'0 0.0
2017-Nov-17 08:00N 29°37' W 095°01'0 0.0
2017-Nov-17 07:30N 29°37' W 095°01'0 0.0
2017-Nov-17 07:00N 29°37' W 095°01'0 0.0
2017-Nov-17 06:30N 29°37' W 095°01'0 0.0
2017-Nov-17 06:00N 29°37' W 095°01'0 0.0
2017-Nov-17 05:30N 29°37' W 095°01'0 0.0
2017-Nov-17 05:00N 29°37' W 095°01'0 0.0
2017-Nov-17 04:30N 29°37' W 095°01'0 0.0
2017-Nov-17 04:00N 29°37' W 095°01'0 0.0
2017-Nov-17 03:30N 29°37' W 095°01'0 0.0
2017-Nov-17 03:00N 29°37' W 095°01'0 0.0
2017-Nov-17 02:30N 29°37' W 095°01'0 0.0
2017-Nov-17 02:00N 29°37' W 095°01'0 0.0
2017-Nov-17 01:30N 29°37' W 095°01'0 0.0
2017-Nov-17 01:00N 29°37' W 095°01'0 0.0
2017-Nov-17 00:30N 29°37' W 095°01'0 0.0
2017-Nov-17 00:00N 29°37' W 095°01'0 0.0
2017-Nov-16 23:30N 29°37' W 095°01'0 0.0
2017-Nov-16 23:00N 29°37' W 095°01'0 0.5
2017-Nov-16 22:30N 29°37' W 095°01'1 1.1
2017-Nov-16 22:00N 29°37' W 095°01'0 0.2
2017-Nov-16 21:30N 29°37' W 095°01'0 0.1
2017-Nov-16 21:00N 29°37' W 095°01'1 1.5
2017-Nov-16 20:30N 29°37' W 095°01'0 0.0
2017-Nov-16 20:00N 29°37' W 095°01'0 0.0
2017-Nov-16 19:30N 29°37' W 095°01'0 0.0
2017-Nov-16 19:00N 29°37' W 095°01'0 0.0
2017-Nov-16 18:30N 29°37' W 095°01'0 0.0
2017-Nov-16 18:00N 29°37' W 095°01'0 0.0
2017-Nov-16 17:30N 29°37' W 095°01'0 0.0
2017-Nov-16 17:00N 29°37' W 095°01'3 5.1
2017-Nov-16 16:30N 29°37' W 094°58'4 8.2
2017-Nov-16 16:00N 29°41' W 094°59'4 0.1
2017-Nov-15 08:41N 29°44' W 095°02'2 8.2
2017-Nov-15 08:29N 29°42' W 095°01'0 0.1
2017-Nov-15 07:57N 29°42' W 095°01'0 0.0
2017-Nov-15 07:27N 29°42' W 095°01'1 2.0
2017-Nov-15 06:51N 29°43' W 095°01'6 0.4
2017-Nov-14 13:51N 29°44' W 095°09'4 7.8
2017-Nov-14 13:20N 29°43' W 095°13'3 8.1
2017-Nov-14 13:00N 29°44' W 095°16'0 0.0
2017-Nov-14 12:20N 29°44' W 095°16'0 0.0
2017-Nov-14 11:41N 29°44' W 095°16'0 0.0
2017-Nov-14 11:08N 29°44' W 095°16'0 0.0
2017-Nov-14 10:55N 29°44' W 095°16'0 0.0
2017-Nov-14 10:19N 29°44' W 095°16'0 0.0
2017-Nov-14 09:58N 29°44' W 095°16'0 0.0
2017-Nov-14 09:25N 29°44' W 095°16'0 0.0
2017-Nov-14 08:58N 29°44' W 095°16'  
Track history (hours):
 
Tides and Currents Weather Stations Pressure Air Temp Water Temp Dewpoint Dewpoint Depression Visibility Wind Speed Wind Dir Waves Ship Positions

Mars

Owner: G & H Towing Company, Galveston, TX. More information available from US FCC via Universal Licensing System and Coast Guard Vessel Documentation Center.

Last reported at 2017-Nov-24 06:34 UTC. Time now 2017-Nov-24 07:09 UTC.
Position N 29°43' W 095°15'.

Length 28 m; draft 4.5 m.

Type: Tug. MMSI: 366921820.

Date/timePositionNaut miles runAvg speedWind from/ knotsBaromVisibWave heightAir tempDewpointWater temp
2017-Nov-24 06:34N 29°43' W 095°15'0 5.2
2017-Nov-24 06:30N 29°43' W 095°15'1 2.2
2017-Nov-24 06:00N 29°44' W 095°13'1 0.4
2017-Nov-24 02:56N 29°43' W 095°15'0 0.7
2017-Nov-24 02:25N 29°43' W 095°15'1 2.4
2017-Nov-24 02:00N 29°44' W 095°14'4 6.3
2017-Nov-24 01:23N 29°44' W 095°09'2 3.2
2017-Nov-24 00:38N 29°45' W 095°07'0 0.0
2017-Nov-24 00:18N 29°45' W 095°07'0 0.0
2017-Nov-23 16:35N 29°44' W 095°07'0 0.0
2017-Nov-23 16:31N 29°44' W 095°07'0 0.0
2017-Nov-23 15:58N 29°44' W 095°07'0 0.0
2017-Nov-23 15:22N 29°44' W 095°07'0 0.0
2017-Nov-23 14:59N 29°44' W 095°07'0 0.0
2017-Nov-23 14:23N 29°44' W 095°07'0 0.0
2017-Nov-23 14:00N 29°44' W 095°07'0 0.0
2017-Nov-23 13:27N 29°44' W 095°07'0 0.2
2017-Nov-23 11:52N 29°45' W 095°07'0 0.0
2017-Nov-23 11:23N 29°45' W 095°07'2 2.8
2017-Nov-23 10:47N 29°44' W 095°08'3 0.6
2017-Nov-23 06:24N 29°45' W 095°12'3 6.3
2017-Nov-23 05:55N 29°43' W 095°15'1 1.9
2017-Nov-23 05:17N 29°44' W 095°16'0 0.0
2017-Nov-23 04:56N 29°44' W 095°16'0 0.0
2017-Nov-23 04:29N 29°44' W 095°16'0 0.0
2017-Nov-23 03:59N 29°44' W 095°16'0 0.0
2017-Nov-23 03:29N 29°44' W 095°16'0 0.0
2017-Nov-23 02:53N 29°44' W 095°16'0 0.0
2017-Nov-23 02:29N 29°44' W 095°16'0 0.0
2017-Nov-23 01:59N 29°44' W 095°16'0 0.0
2017-Nov-23 01:23N 29°44' W 095°16'0 0.0
2017-Nov-23 00:59N 29°44' W 095°16'0 0.0
2017-Nov-23 00:17N 29°44' W 095°16'0 0.0
2017-Nov-22 23:59N 29°44' W 095°16'0 0.0
2017-Nov-22 23:20N 29°44' W 095°16'0 0.0
2017-Nov-22 22:59N 29°44' W 095°16'0 0.0
2017-Nov-22 22:17N 29°44' W 095°16'0 1.3
2017-Nov-22 22:00N 29°44' W 095°16'1 1.1
2017-Nov-22 21:28N 29°44' W 095°17'1 1.9
2017-Nov-22 21:00N 29°44' W 095°16'1 1.4
2017-Nov-22 20:30N 29°44' W 095°15'3 7.1
2017-Nov-22 20:00N 29°45' W 095°11'  
2017-Nov-18 06:16N 29°42' W 095°01'2 6.4
2017-Nov-18 06:00N 29°42' W 094°59'5 9.2
2017-Nov-18 05:29N 29°37' W 094°57'3 7.1
2017-Nov-18 05:00N 29°37' W 095°01'0 0.1
2017-Nov-18 04:30N 29°37' W 095°01'1 2.0
2017-Nov-18 04:00N 29°37' W 095°00'0 0.0
2017-Nov-18 03:30N 29°37' W 095°00'0 0.0
2017-Nov-18 03:00N 29°37' W 095°00'0 0.0
2017-Nov-18 02:30N 29°37' W 095°00'0 0.0
2017-Nov-18 02:00N 29°37' W 095°00'0 0.0
2017-Nov-18 01:30N 29°37' W 095°00'0 0.0
2017-Nov-18 01:00N 29°37' W 095°00'0 0.0
2017-Nov-18 00:30N 29°37' W 095°00'0 0.0
2017-Nov-18 00:00N 29°37' W 095°00'1 2.0
2017-Nov-17 23:30N 29°37' W 095°01'0 0.6
2017-Nov-17 23:00N 29°37' W 095°02'0 0.0
2017-Nov-17 22:30N 29°37' W 095°02'0 0.4
2017-Nov-17 22:00N 29°37' W 095°01'1 2.1
2017-Nov-17 21:30N 29°37' W 095°00'0 0.0
2017-Nov-17 21:00N 29°37' W 095°00'0 0.0
2017-Nov-17 20:30N 29°37' W 095°00'0 0.0
2017-Nov-17 20:00N 29°37' W 095°00'0 0.0
2017-Nov-17 19:30N 29°37' W 095°00'0 0.2
2017-Nov-17 19:00N 29°37' W 095°00'0 0.0
2017-Nov-17 18:30N 29°37' W 095°00'0 0.0
2017-Nov-17 18:00N 29°37' W 095°00'0 0.0
2017-Nov-17 17:30N 29°37' W 095°00'0 0.0
2017-Nov-17 17:00N 29°37' W 095°00'0 0.0
2017-Nov-17 16:30N 29°37' W 095°00'0 0.0
2017-Nov-17 16:00N 29°37' W 095°00'0 0.0
2017-Nov-17 15:30N 29°37' W 095°00'0 0.0
2017-Nov-17 15:00N 29°37' W 095°00'0 0.0
2017-Nov-17 14:30N 29°37' W 095°00'0 0.0
2017-Nov-17 14:00N 29°37' W 095°00'0 0.0
2017-Nov-17 13:30N 29°37' W 095°00'0 0.0
2017-Nov-17 13:00N 29°37' W 095°00'0 0.0
2017-Nov-17 12:30N 29°37' W 095°00'0 0.0
2017-Nov-17 11:58N 29°37' W 095°00'0 0.0
2017-Nov-17 11:30N 29°37' W 095°00'0 0.0
2017-Nov-17 11:00N 29°37' W 095°00'0 0.0
2017-Nov-17 10:30N 29°37' W 095°00'0 0.0
2017-Nov-17 10:00N 29°37' W 095°00'0 0.0
2017-Nov-17 09:30N 29°37' W 095°00'0 0.6
2017-Nov-17 09:00N 29°37' W 095°01'0 0.0
2017-Nov-17 08:30N 29°37' W 095°01'0 0.0
2017-Nov-17 08:00N 29°37' W 095°01'0 0.0
2017-Nov-17 07:30N 29°37' W 095°01'0 0.0
2017-Nov-17 07:00N 29°37' W 095°01'0 0.0
2017-Nov-17 06:30N 29°37' W 095°01'0 0.0
2017-Nov-17 06:00N 29°37' W 095°01'0 0.0
2017-Nov-17 05:30N 29°37' W 095°01'0 0.0
2017-Nov-17 05:00N 29°37' W 095°01'0 0.0
2017-Nov-17 04:30N 29°37' W 095°01'0 0.0
2017-Nov-17 04:00N 29°37' W 095°01'0 0.0
2017-Nov-17 03:30N 29°37' W 095°01'0 0.0
2017-Nov-17 03:00N 29°37' W 095°01'0 0.0
2017-Nov-17 02:30N 29°37' W 095°01'0 0.0
2017-Nov-17 02:00N 29°37' W 095°01'0 0.0
2017-Nov-17 01:30N 29°37' W 095°01'0 0.0
2017-Nov-17 01:00N 29°37' W 095°01'0 0.0
2017-Nov-17 00:30N 29°37' W 095°01'0 0.0
2017-Nov-17 00:00N 29°37' W 095°01'0 0.0
2017-Nov-16 23:30N 29°37' W 095°01'0 0.0
2017-Nov-16 23:00N 29°37' W 095°01'0 0.5
2017-Nov-16 22:30N 29°37' W 095°01'1 1.1
2017-Nov-16 22:00N 29°37' W 095°01'0 0.2
2017-Nov-16 21:30N 29°37' W 095°01'0 0.1
2017-Nov-16 21:00N 29°37' W 095°01'1 1.5
2017-Nov-16 20:30N 29°37' W 095°01'0 0.0
2017-Nov-16 20:00N 29°37' W 095°01'0 0.0
2017-Nov-16 19:30N 29°37' W 095°01'0 0.0
2017-Nov-16 19:00N 29°37' W 095°01'0 0.0
2017-Nov-16 18:30N 29°37' W 095°01'0 0.0
2017-Nov-16 18:00N 29°37' W 095°01'0 0.0
2017-Nov-16 17:30N 29°37' W 095°01'0 0.0
2017-Nov-16 17:00N 29°37' W 095°01'3 5.1
2017-Nov-16 16:30N 29°37' W 094°58'4 8.2
2017-Nov-16 16:00N 29°41' W 094°59'4 0.1
2017-Nov-15 08:41N 29°44' W 095°02'2 8.2
2017-Nov-15 08:29N 29°42' W 095°01'0 0.1
2017-Nov-15 07:57N 29°42' W 095°01'0 0.0
2017-Nov-15 07:27N 29°42' W 095°01'1 2.0
2017-Nov-15 06:51N 29°43' W 095°01'6 0.4
2017-Nov-14 13:51N 29°44' W 095°09'4 7.8
2017-Nov-14 13:20N 29°43' W 095°13'3 8.1
2017-Nov-14 13:00N 29°44' W 095°16'0 0.0
2017-Nov-14 12:20N 29°44' W 095°16'0 0.0
2017-Nov-14 11:41N 29°44' W 095°16'0 0.0
2017-Nov-14 11:08N 29°44' W 095°16'0 0.0
2017-Nov-14 10:55N 29°44' W 095°16'0 0.0
2017-Nov-14 10:19N 29°44' W 095°16'0 0.0
2017-Nov-14 09:58N 29°44' W 095°16'0 0.0
2017-Nov-14 09:25N 29°44' W 095°16'0 0.0
2017-Nov-14 08:58N 29°44' W 095°16'  

Dump ship's entire track history